createdAt,value
2019-02-02T00:00:02.592Z,26.70
2019-02-02T00:02:33.129Z,22.77
2019-02-02T00:05:03.430Z,23.30
2019-02-02T00:07:33.624Z,23.30
2019-02-02T00:10:03.772Z,21.40
2019-02-02T00:12:34.114Z,23.87
2019-02-02T00:15:04.815Z,23.80
2019-02-02T00:17:35.331Z,22.47
2019-02-02T00:20:06.625Z,20.50
2019-02-02T00:22:37.486Z,18.33
2019-02-02T00:25:08.390Z,17.43
2019-02-02T00:27:41.482Z,17.37
2019-02-02T00:30:13.068Z,21.47
2019-02-02T00:32:43.360Z,18.20
2019-02-02T00:35:13.878Z,18.60
2019-02-02T00:37:44.034Z,19.23
2019-02-02T00:40:14.269Z,14.60
2019-02-02T00:42:44.529Z,16.30
2019-02-02T00:45:14.895Z,15.23
2019-02-02T00:47:45.154Z,16.07
2019-02-02T00:50:15.817Z,17.43
2019-02-02T00:52:46.080Z,16.67
2019-02-02T00:55:16.646Z,15.57
2019-02-02T00:57:53.394Z,14.70
2019-02-02T01:00:21.361Z,14.90
2019-02-02T01:02:51.910Z,12.93
2019-02-02T01:05:22.914Z,16.97
2019-02-02T01:07:53.231Z,15.67
2019-02-02T01:10:26.367Z,16.60
2019-02-02T01:12:56.631Z,17.20
2019-02-02T01:15:26.861Z,16.00
2019-02-02T01:17:57.156Z,15.30
2019-02-02T01:20:28.388Z,14.23
2019-02-02T01:22:58.550Z,12.23
2019-02-02T01:25:29.044Z,19.20
2019-02-02T01:28:05.267Z,18.70
2019-02-02T01:30:31.367Z,19.37
2019-02-02T01:33:01.619Z,17.83
2019-02-02T01:35:31.716Z,17.33
2019-02-02T01:38:02.420Z,15.70
2019-02-02T01:40:33.394Z,15.10
2019-02-02T01:43:03.599Z,18.03
2019-02-02T01:45:33.729Z,17.70
2019-02-02T01:48:04.112Z,20.57
2019-02-02T01:50:34.403Z,20.30
2019-02-02T01:53:04.671Z,16.63
2019-02-02T01:55:35.205Z,26.00
2019-02-02T01:58:15.982Z,18.57
2019-02-02T02:00:38.414Z,16.77
2019-02-02T02:03:09.020Z,16.10
2019-02-02T02:05:39.299Z,14.80
2019-02-02T02:08:09.543Z,15.87
2019-02-02T02:10:39.753Z,16.23
2019-02-02T02:13:09.928Z,19.57
2019-02-02T02:15:40.221Z,16.43
2019-02-02T02:18:10.483Z,17.27
2019-02-02T02:20:40.698Z,18.03
2019-02-02T02:23:10.969Z,17.03
2019-02-02T02:25:41.547Z,16.40
2019-02-02T02:28:11.662Z,17.53
2019-02-02T02:30:41.857Z,14.67
2019-02-02T02:33:12.199Z,16.40
2019-02-02T02:35:42.500Z,14.90
2019-02-02T02:38:12.744Z,15.20
2019-02-02T02:40:42.754Z,13.37
2019-02-02T02:43:13.362Z,14.60
2019-02-02T02:45:43.913Z,14.20
2019-02-02T02:48:14.651Z,13.50
2019-02-02T02:50:44.949Z,14.77
2019-02-02T02:53:15.316Z,13.77
2019-02-02T02:55:45.533Z,17.33
2019-02-02T02:58:16.176Z,16.30
2019-02-02T03:00:46.481Z,15.00
2019-02-02T03:03:16.730Z,17.97
2019-02-02T03:05:47.552Z,18.70
2019-02-02T03:08:17.899Z,15.30
2019-02-02T03:10:48.115Z,16.00
2019-02-02T03:13:18.809Z,14.93
2019-02-02T03:15:49.325Z,15.70
2019-02-02T03:18:20.086Z,15.17
2019-02-02T03:20:50.821Z,13.20
2019-02-02T03:23:21.325Z,14.77
2019-02-02T03:25:52.087Z,14.60
2019-02-02T03:28:22.581Z,12.67
2019-02-02T03:30:52.744Z,13.97
2019-02-02T03:33:22.968Z,15.13
2019-02-02T03:35:53.307Z,14.70
2019-02-02T03:38:23.556Z,13.73
2019-02-02T03:40:53.678Z,15.30
2019-02-02T03:43:23.721Z,17.80
2019-02-02T03:45:52.936Z,14.63
2019-02-02T03:48:23.246Z,15.77
2019-02-02T03:50:53.358Z,16.37
2019-02-02T03:53:24.015Z,17.67
2019-02-02T03:55:54.324Z,18.40
2019-02-02T03:58:24.531Z,18.87
2019-02-02T04:00:54.765Z,18.87
2019-02-02T04:03:24.983Z,17.83
2019-02-02T04:08:24.197Z,19.07
2019-02-02T04:10:54.502Z,17.70
2019-02-02T04:13:25.357Z,17.90
2019-02-02T04:15:55.577Z,17.27
2019-02-02T04:18:25.694Z,15.90
2019-02-02T04:20:56.007Z,16.37
2019-02-02T04:23:26.290Z,20.40
2019-02-02T04:25:58.864Z,16.27
2019-02-02T04:28:28.997Z,16.60
2019-02-02T04:30:59.784Z,15.53
2019-02-02T04:33:30.347Z,19.77
2019-02-02T04:36:00.556Z,22.83
2019-02-02T04:38:30.763Z,19.70
2019-02-02T04:41:01.069Z,18.90
2019-02-02T04:46:00.293Z,20.00
2019-02-02T04:48:32.548Z,22.83
2019-02-02T04:51:02.425Z,20.73
2019-02-02T04:53:32.543Z,19.60
2019-02-02T04:56:02.877Z,20.00
2019-02-02T04:58:33.185Z,14.47
2019-02-02T05:01:03.660Z,20.00
2019-02-02T05:03:33.778Z,17.70
2019-02-02T05:06:04.083Z,22.37
2019-02-02T05:08:34.391Z,22.23
2019-02-02T05:11:04.762Z,19.80
2019-02-02T05:13:34.771Z,21.80
2019-02-02T05:16:05.410Z,20.97
2019-02-02T05:18:36.139Z,21.87
2019-02-02T05:21:06.380Z,20.80
2019-02-02T05:23:36.483Z,22.70
2019-02-02T05:26:06.783Z,20.00
2019-02-02T05:28:36.799Z,18.60
2019-02-02T05:31:07.116Z,16.40
2019-02-02T05:33:37.454Z,15.20
2019-02-02T05:36:07.665Z,17.50
2019-02-02T05:38:38.196Z,18.33
2019-02-02T05:41:08.831Z,19.53
2019-02-02T05:43:39.388Z,44.97
2019-02-02T05:46:09.975Z,29.70
2019-02-02T05:48:40.129Z,26.67
2019-02-02T05:53:40.280Z,35.67
2019-02-02T05:56:10.683Z,30.40
2019-02-02T05:58:41.317Z,32.13
2019-02-02T06:01:17.376Z,28.40
2019-02-02T06:03:48.086Z,21.10
2019-02-02T06:06:18.519Z,31.20
2019-02-02T06:08:49.190Z,22.33
2019-02-02T06:11:19.460Z,26.00
2019-02-02T06:13:49.468Z,21.43
2019-02-02T06:16:19.739Z,25.30
2019-02-02T06:18:50.051Z,26.00
2019-02-02T06:21:20.317Z,21.70
2019-02-02T06:23:50.329Z,32.77
2019-02-02T06:26:20.615Z,26.03
2019-02-02T06:28:50.903Z,25.63
2019-02-02T06:31:21.201Z,28.10
2019-02-02T06:33:51.356Z,31.73
2019-02-02T06:36:22.115Z,43.77
2019-02-02T06:38:53.062Z,44.53
2019-02-02T06:41:23.327Z,44.57
2019-02-02T06:43:54.047Z,53.60
2019-02-02T06:46:24.612Z,49.63
2019-02-02T06:48:54.926Z,65.10
2019-02-02T06:51:25.188Z,59.77
2019-02-02T06:53:56.081Z,54.63
2019-02-02T06:56:26.652Z,55.10
2019-02-02T06:58:57.568Z,76.30
2019-02-02T07:01:28.090Z,65.10
2019-02-02T07:03:58.646Z,57.43
2019-02-02T07:06:29.079Z,60.43
2019-02-02T07:08:59.926Z,63.97
2019-02-02T07:11:30.474Z,58.63
2019-02-02T07:14:01.147Z,67.40
2019-02-02T07:16:31.594Z,64.83
2019-02-02T07:19:02.514Z,70.63
2019-02-02T07:21:33.183Z,53.40
2019-02-02T07:24:03.569Z,44.47
2019-02-02T07:26:34.248Z,67.10
2019-02-02T07:29:05.201Z,68.60
2019-02-02T07:31:36.190Z,55.00
2019-02-02T07:34:07.023Z,52.90
2019-02-02T07:36:37.838Z,37.87
2019-02-02T07:39:09.730Z,30.00
2019-02-02T07:41:41.195Z,14.87
2019-02-02T07:44:12.214Z,14.63
2019-02-02T07:46:42.845Z,12.30
2019-02-02T07:49:13.455Z,16.80
2019-02-02T07:51:43.634Z,18.07
2019-02-02T07:54:14.716Z,16.93
2019-02-02T07:56:45.441Z,20.90
2019-02-02T07:59:15.976Z,19.30
2019-02-02T08:01:46.515Z,22.47
2019-02-02T08:04:17.169Z,20.00
2019-02-02T08:06:47.769Z,22.10
2019-02-02T08:09:18.590Z,25.40
2019-02-02T08:11:49.031Z,18.60
2019-02-02T08:14:19.589Z,25.67
2019-02-02T08:16:52.601Z,22.03
2019-02-02T08:19:25.293Z,26.77
2019-02-02T08:21:54.791Z,26.17
2019-02-02T08:24:25.395Z,18.03
2019-02-02T08:26:56.023Z,28.70
2019-02-02T08:29:27.147Z,19.53
2019-02-02T08:31:58.008Z,23.70
2019-02-02T08:34:28.515Z,19.43
2019-02-02T08:36:59.058Z,22.70
2019-02-02T08:39:30.151Z,21.53
2019-02-02T08:42:00.900Z,17.77
2019-02-02T08:44:31.406Z,19.90
2019-02-02T08:47:02.221Z,22.33
2019-02-02T08:49:32.481Z,26.97
2019-02-02T08:52:02.722Z,24.40
2019-02-02T08:54:33.046Z,25.17
2019-02-02T08:57:03.250Z,23.77
2019-02-02T08:59:33.423Z,28.77
2019-02-02T09:02:03.878Z,23.90
2019-02-02T09:04:34.186Z,22.80
2019-02-02T09:07:04.408Z,20.87
2019-02-02T09:09:34.578Z,21.87
2019-02-02T09:12:05.202Z,19.00
2019-02-02T09:14:35.510Z,22.80
2019-02-02T09:17:05.776Z,23.67
2019-02-02T09:19:35.783Z,19.30
2019-02-02T09:22:06.093Z,16.90
2019-02-02T09:24:36.495Z,17.60
2019-02-02T09:27:06.650Z,21.03
2019-02-02T09:29:36.906Z,20.67
2019-02-02T09:32:07.176Z,20.50
2019-02-02T09:34:37.399Z,22.40
2019-02-02T09:37:07.773Z,20.47
2019-02-02T09:39:38.014Z,20.43
2019-02-02T09:42:08.174Z,20.67
2019-02-02T09:44:38.314Z,23.07
2019-02-02T09:47:08.641Z,21.87
2019-02-02T09:49:38.967Z,20.60
2019-02-02T09:52:09.409Z,20.10
2019-02-02T09:54:39.901Z,19.03
2019-02-02T09:57:10.531Z,11.80
2019-02-02T09:59:40.827Z,15.53
2019-02-02T10:02:11.042Z,12.27
2019-02-02T10:04:41.255Z,12.27
2019-02-02T10:07:11.782Z,13.93
2019-02-02T10:09:41.931Z,21.33
2019-02-02T10:12:12.223Z,23.43
2019-02-02T10:14:42.793Z,15.77
2019-02-02T10:17:13.041Z,31.73
2019-02-02T10:19:42.957Z,19.27
2019-02-02T10:22:13.366Z,24.63
2019-02-02T10:24:43.770Z,17.00
2019-02-02T10:27:14.857Z,18.87
2019-02-02T10:29:45.342Z,14.20
2019-02-02T10:32:16.086Z,16.70
2019-02-02T10:34:46.892Z,14.03
2019-02-02T10:37:17.668Z,15.90
2019-02-02T10:39:48.414Z,13.10
2019-02-02T10:42:19.184Z,12.43
2019-02-02T10:44:49.995Z,13.33
2019-02-02T10:47:21.221Z,14.50
2019-02-02T10:49:51.789Z,16.30
2019-02-02T10:52:22.448Z,17.60
2019-02-02T10:54:53.005Z,17.07
2019-02-02T10:57:23.275Z,23.07
2019-02-02T10:59:53.956Z,15.60
2019-02-02T11:02:24.692Z,16.77
2019-02-02T11:04:55.299Z,10.93
2019-02-02T11:07:25.743Z,15.97
2019-02-02T11:09:56.805Z,12.57
2019-02-02T11:12:27.417Z,15.27
2019-02-02T11:14:57.578Z,13.13
2019-02-02T11:17:28.143Z,10.87
2019-02-02T11:19:58.708Z,12.17
2019-02-02T11:22:29.190Z,10.47
2019-02-02T11:24:59.353Z,8.63
2019-02-02T11:27:29.675Z,9.83
2019-02-02T11:29:59.842Z,9.40
2019-02-02T11:32:30.339Z,11.03
2019-02-02T11:35:02.239Z,14.13
2019-02-02T11:37:32.339Z,10.80
2019-02-02T11:40:03.181Z,9.77
2019-02-02T11:42:33.852Z,11.43
2019-02-02T11:45:05.218Z,17.43
2019-02-02T11:47:35.738Z,13.47
2019-02-02T11:50:07.014Z,12.90
2019-02-02T11:52:37.606Z,13.30
2019-02-02T11:55:09.123Z,13.60
2019-02-02T11:57:39.478Z,11.67
2019-02-02T12:00:23.049Z,12.50
2019-02-02T12:02:53.650Z,10.80
2019-02-02T12:05:24.684Z,11.33
2019-02-02T12:07:55.199Z,11.80
2019-02-02T12:10:26.499Z,11.00
2019-02-02T12:12:57.093Z,14.60
2019-02-02T12:15:27.623Z,17.73
2019-02-02T12:17:58.013Z,13.03
2019-02-02T12:20:28.639Z,14.67
2019-02-02T12:22:59.318Z,12.00
2019-02-02T12:25:30.051Z,13.77
2019-02-02T12:28:00.160Z,15.50
2019-02-02T12:30:35.455Z,20.13
2019-02-02T12:33:07.045Z,13.80
2019-02-02T12:35:37.697Z,15.17
2019-02-02T12:38:08.422Z,18.87
2019-02-02T12:40:38.925Z,29.70
2019-02-02T12:43:11.631Z,25.87
2019-02-02T12:45:48.146Z,22.27
2019-02-02T12:48:18.699Z,21.63
2019-02-02T12:50:49.263Z,19.10
2019-02-02T12:53:19.827Z,17.53
2019-02-02T12:55:50.392Z,15.53
2019-02-02T12:58:20.943Z,16.60
2019-02-02T13:00:51.604Z,13.27
2019-02-02T13:03:22.331Z,11.00
2019-02-02T13:05:52.805Z,11.77
2019-02-02T13:08:23.491Z,13.63
2019-02-02T13:10:54.029Z,10.43
2019-02-02T13:13:24.634Z,18.33
2019-02-02T13:15:55.039Z,21.63
2019-02-02T13:18:25.888Z,25.50
2019-02-02T13:20:56.667Z,17.83
2019-02-02T13:23:27.126Z,16.57
2019-02-02T13:26:05.178Z,17.17
2019-02-02T13:28:30.349Z,13.77
2019-02-02T13:31:01.082Z,12.17
2019-02-02T13:33:31.830Z,11.90
2019-02-02T13:36:02.317Z,15.53
2019-02-02T13:38:32.794Z,18.00
2019-02-02T13:41:02.809Z,25.40
2019-02-02T13:43:33.401Z,23.23
2019-02-02T13:46:03.722Z,18.13
2019-02-02T13:48:34.234Z,17.17
2019-02-02T13:51:06.161Z,20.53
2019-02-02T13:53:36.574Z,17.50
2019-02-02T13:56:06.882Z,19.13
2019-02-02T13:58:36.993Z,18.33
2019-02-02T14:01:07.272Z,20.90
2019-02-02T14:03:37.593Z,21.00
2019-02-02T14:06:08.298Z,29.50
2019-02-02T14:08:38.853Z,29.23
2019-02-02T14:11:09.267Z,29.20
2019-02-02T14:13:39.392Z,24.53
2019-02-02T14:16:09.621Z,26.67
2019-02-02T14:18:39.933Z,26.43
2019-02-02T14:21:10.239Z,18.53
2019-02-02T14:23:40.147Z,18.03
2019-02-02T14:26:10.232Z,13.43
2019-02-02T14:28:40.691Z,14.50
2019-02-02T14:31:11.236Z,26.97
2019-02-02T14:33:41.737Z,23.60
2019-02-02T14:36:11.948Z,24.20
2019-02-02T14:38:42.399Z,34.17
2019-02-02T14:41:12.720Z,60.77
2019-02-02T14:43:42.817Z,29.83
2019-02-02T14:46:12.976Z,27.50
2019-02-02T14:48:43.303Z,27.30
2019-02-02T14:51:13.543Z,49.97
2019-02-02T14:53:43.889Z,32.90
2019-02-02T14:56:14.102Z,25.43
2019-02-02T14:58:44.235Z,19.40
2019-02-02T15:01:14.695Z,25.40
2019-02-02T15:03:45.208Z,30.00
2019-02-02T15:06:15.685Z,35.70
2019-02-02T15:08:46.027Z,38.67
2019-02-02T15:11:16.523Z,35.70
2019-02-02T15:13:46.847Z,34.50
2019-02-02T15:16:17.166Z,35.70
2019-02-02T15:18:47.450Z,44.20
2019-02-02T15:21:17.451Z,43.27
2019-02-02T15:23:47.881Z,42.70
2019-02-02T15:26:18.303Z,91.10
2019-02-02T15:28:48.346Z,53.53
2019-02-02T15:31:18.659Z,51.73
2019-02-02T15:33:48.773Z,71.67
2019-02-02T15:36:18.780Z,87.60
2019-02-02T15:38:49.077Z,83.57
2019-02-02T15:41:19.564Z,65.13
2019-02-02T15:43:49.606Z,64.60
2019-02-02T15:46:20.042Z,68.87
2019-02-02T15:48:50.761Z,89.33
2019-02-02T15:51:21.705Z,99.77
2019-02-02T15:53:52.321Z,136.73
2019-02-02T15:56:22.641Z,121.03
2019-02-02T15:58:53.373Z,84.37
2019-02-02T16:01:23.945Z,79.80
2019-02-02T16:03:54.630Z,82.73
2019-02-02T16:06:25.287Z,74.57
2019-02-02T16:08:55.889Z,71.43
2019-02-02T16:11:26.543Z,68.20
2019-02-02T16:13:57.034Z,89.40
2019-02-02T16:16:27.678Z,94.57
2019-02-02T16:18:57.985Z,110.40
2019-02-02T16:21:28.605Z,91.23
2019-02-02T16:23:59.464Z,108.80
2019-02-02T16:26:30.201Z,114.53
2019-02-02T16:29:00.699Z,106.57
2019-02-02T16:31:31.330Z,96.10
2019-02-02T16:34:02.595Z,84.27
2019-02-02T16:36:33.450Z,71.97
2019-02-02T16:42:01.029Z,58.07
2019-02-02T16:44:31.578Z,56.70
2019-02-02T16:47:02.345Z,52.83
2019-02-02T16:49:32.806Z,59.90
2019-02-02T16:52:03.354Z,67.63
2019-02-02T16:54:34.112Z,63.27
2019-02-02T17:00:34.846Z,69.57
2019-02-02T17:03:05.757Z,76.27
2019-02-02T17:05:36.612Z,104.83
2019-02-02T17:08:07.355Z,78.00
2019-02-02T17:10:38.994Z,88.17
2019-02-02T17:13:09.682Z,91.70
2019-02-02T17:15:40.259Z,77.70
2019-02-02T17:18:10.892Z,64.40
2019-02-02T17:20:43.337Z,70.20
2019-02-02T17:23:13.873Z,61.20
2019-02-02T17:25:44.618Z,50.70
2019-02-02T17:28:15.194Z,66.93
2019-02-02T17:30:45.705Z,59.77
2019-02-02T17:33:17.595Z,62.47
2019-02-02T17:35:48.395Z,64.60
2019-02-02T17:38:18.778Z,68.87
2019-02-02T17:40:49.406Z,57.23
2019-02-02T17:43:20.021Z,61.00
2019-02-02T17:45:50.677Z,56.00
2019-02-02T17:48:21.390Z,61.07
2019-02-02T17:50:52.267Z,56.57
2019-02-02T17:53:22.950Z,59.47
2019-02-02T17:55:53.420Z,56.80
2019-02-02T17:58:24.276Z,88.40
2019-02-02T18:00:57.893Z,90.47
2019-02-02T18:03:28.539Z,57.33
2019-02-02T18:05:59.342Z,37.90
2019-02-02T18:08:29.720Z,30.50
2019-02-02T18:11:00.308Z,29.70
2019-02-02T18:13:30.999Z,33.20
2019-02-02T18:16:01.302Z,48.30
2019-02-02T18:18:31.941Z,45.73
2019-02-02T18:21:02.817Z,49.10
2019-02-02T18:23:33.111Z,44.50
2019-02-02T18:26:03.764Z,36.67
2019-02-02T18:28:34.280Z,59.00
2019-02-02T18:31:05.259Z,54.90
2019-02-02T18:33:35.859Z,45.00
2019-02-02T18:36:06.824Z,50.20
2019-02-02T18:38:37.359Z,48.50
2019-02-02T18:41:08.045Z,53.20
2019-02-02T18:43:38.710Z,57.93
2019-02-02T18:46:09.363Z,48.30
2019-02-02T18:48:40.256Z,52.40
2019-02-02T18:51:10.873Z,51.57
2019-02-02T18:53:41.374Z,41.27
2019-02-02T18:56:13.940Z,41.07
2019-02-02T18:58:44.504Z,30.87
2019-02-02T19:01:15.123Z,28.30
2019-02-02T19:03:45.785Z,28.80
2019-02-02T19:06:16.543Z,31.70
2019-02-02T19:08:47.121Z,27.50
2019-02-02T19:11:17.656Z,23.53
2019-02-02T19:13:48.297Z,27.00
2019-02-02T19:16:18.732Z,26.57
2019-02-02T19:18:49.244Z,32.60
2019-02-02T19:21:19.755Z,56.10
2019-02-02T19:23:50.321Z,43.17
2019-02-02T19:26:21.241Z,34.13
2019-02-02T19:28:51.914Z,39.03
2019-02-02T19:31:22.507Z,29.63
2019-02-02T19:33:53.448Z,27.73
2019-02-02T19:36:23.961Z,30.37
2019-02-02T19:38:54.818Z,28.47
2019-02-02T19:41:25.451Z,27.93
2019-02-02T19:43:55.649Z,27.93
2019-02-02T19:46:26.289Z,31.77
2019-02-02T19:48:57.161Z,32.60
2019-02-02T19:51:27.864Z,29.30
2019-02-02T19:53:58.380Z,24.73
2019-02-02T19:56:28.809Z,21.70
2019-02-02T19:58:59.645Z,21.33
2019-02-02T20:01:30.396Z,21.70
2019-02-02T20:04:00.893Z,19.43
2019-02-02T20:06:31.807Z,17.10
2019-02-02T20:09:02.284Z,21.50
2019-02-02T20:11:32.927Z,22.10
2019-02-02T20:14:03.530Z,27.80
2019-02-02T20:16:34.249Z,26.87
2019-02-02T20:19:05.246Z,25.33
2019-02-02T20:21:35.943Z,27.93
2019-02-02T20:24:06.670Z,27.60
2019-02-02T20:26:37.309Z,28.03
2019-02-02T20:29:08.348Z,32.93
2019-02-02T20:31:39.010Z,38.70
2019-02-02T20:34:09.436Z,36.27
2019-02-02T20:36:39.938Z,45.40
2019-02-02T20:39:10.874Z,37.47
2019-02-02T20:41:41.672Z,33.87
2019-02-02T20:44:12.374Z,30.57
2019-02-02T20:46:42.921Z,29.10
2019-02-02T20:49:13.702Z,27.20
2019-02-02T20:51:44.175Z,17.53
2019-02-02T20:54:14.835Z,17.47
2019-02-02T20:56:46.016Z,15.43
2019-02-02T20:59:16.853Z,14.93
2019-02-02T21:01:47.248Z,15.70
2019-02-02T21:04:17.912Z,12.93
2019-02-02T21:06:48.640Z,9.93
2019-02-02T21:09:19.274Z,12.53
2019-02-02T21:11:56.718Z,23.47
2019-02-02T21:14:21.883Z,12.10
2019-02-02T21:16:52.486Z,12.60
2019-02-02T21:19:22.898Z,15.57
2019-02-02T21:21:53.462Z,28.70
2019-02-02T21:24:24.089Z,26.97
2019-02-02T21:26:54.512Z,23.33
2019-02-02T21:29:25.141Z,19.77
2019-02-02T21:31:56.084Z,21.13
2019-02-02T21:34:26.988Z,27.40
2019-02-02T21:37:17.516Z,17.27
2019-02-02T21:39:48.664Z,22.40
2019-02-02T21:42:19.437Z,16.60
2019-02-02T21:44:49.986Z,12.30
2019-02-02T21:47:20.614Z,13.73
2019-02-02T21:49:51.376Z,12.73
2019-02-02T21:52:22.318Z,12.73
2019-02-02T21:54:52.494Z,9.60
2019-02-02T21:57:23.042Z,10.33
2019-02-02T21:59:53.591Z,8.23
2019-02-02T22:02:24.307Z,9.03
2019-02-02T22:04:54.839Z,10.90
2019-02-02T22:07:25.523Z,11.87
2019-02-02T22:09:56.180Z,9.67
2019-02-02T22:12:27.042Z,8.37
2019-02-02T22:14:57.664Z,6.87
2019-02-02T22:17:28.237Z,7.00
2019-02-02T22:19:58.713Z,8.00
2019-02-02T22:22:29.245Z,8.87
2019-02-02T22:25:00.050Z,17.30
2019-02-02T22:27:30.723Z,12.23
2019-02-02T22:30:01.895Z,22.10
2019-02-02T22:32:32.868Z,15.73
2019-02-02T22:35:03.548Z,16.97
2019-02-02T22:37:34.500Z,12.87
2019-02-02T22:40:05.815Z,12.97
2019-02-02T22:42:36.245Z,12.83
2019-02-02T22:45:27.125Z,14.33
2019-02-02T22:47:57.553Z,14.37
2019-02-02T22:50:28.830Z,14.13
2019-02-02T22:52:59.056Z,13.90
2019-02-02T22:55:29.378Z,12.63
2019-02-02T22:58:00.209Z,13.50
2019-02-02T23:00:58.209Z,12.13
2019-02-02T23:03:41.752Z,19.07
2019-02-02T23:07:14.017Z,17.93
2019-02-02T23:10:23.471Z,24.90
2019-02-02T23:13:40.677Z,25.60
2019-02-02T23:16:24.418Z,19.67
2019-02-02T23:18:54.154Z,21.53
2019-02-02T23:21:25.416Z,23.27
2019-02-02T23:23:56.200Z,22.27
2019-02-02T23:26:26.612Z,22.00
2019-02-02T23:28:57.256Z,22.60
2019-02-02T23:31:28.079Z,21.70
2019-02-02T23:33:58.705Z,20.30
2019-02-02T23:36:29.323Z,18.00
2019-02-02T23:38:59.982Z,20.90
2019-02-02T23:41:30.397Z,22.47
2019-02-02T23:44:01.034Z,19.17
2019-02-02T23:46:31.679Z,17.87
2019-02-02T23:49:01.799Z,14.13
2019-02-02T23:51:32.252Z,12.30
2019-02-02T23:54:02.847Z,13.13
2019-02-02T23:56:32.544Z,12.67
2019-02-02T23:59:03.076Z,15.00
